createdAt,value
2022-08-07T00:04:39.410Z,65.8
2022-08-07T00:09:22.659Z,66.0
2022-08-07T00:14:30.241Z,66.0
2022-08-07T00:22:51.576Z,66.4
2022-08-07T00:27:06.167Z,66.1
2022-08-07T00:32:00.932Z,66.1
2022-08-07T00:37:07.280Z,66.1
2022-08-07T00:42:13.657Z,66.4
2022-08-07T00:48:07.745Z,66.5
2022-08-07T00:52:26.601Z,66.6
2022-08-07T00:57:34.154Z,66.6
2022-08-07T01:02:39.636Z,67.1
2022-08-07T01:07:45.911Z,67.0
2022-08-07T01:12:53.865Z,66.9
2022-08-07T01:18:18.745Z,67.1
2022-08-07T01:23:35.463Z,67.1
2022-08-07T01:28:31.506Z,67.2
2022-08-07T01:33:17.959Z,67.4
2022-08-07T01:38:25.249Z,67.4
2022-08-07T01:43:34.633Z,67.4
2022-08-07T01:54:08.798Z,67.9
2022-08-07T01:58:50.449Z,67.8
2022-08-07T02:03:56.890Z,67.8
2022-08-07T02:09:04.255Z,67.8
2022-08-07T02:20:07.383Z,67.9
2022-08-07T02:24:46.555Z,68.0
2022-08-07T02:29:28.888Z,68.0
2022-08-07T02:34:35.264Z,68.1
2022-08-07T02:39:43.098Z,68.0
2022-08-07T02:44:48.752Z,68.1
2022-08-07T02:49:57.877Z,68.2
2022-08-07T02:55:00.792Z,68.3
2022-08-07T03:00:11.042Z,68.4
2022-08-07T03:05:13.578Z,68.4
2022-08-07T03:15:30.381Z,68.5
2022-08-07T03:20:32.839Z,68.7
2022-08-07T03:26:03.374Z,68.8
2022-08-07T03:30:45.789Z,68.8
2022-08-07T03:35:52.164Z,69.1
2022-08-07T03:40:58.570Z,68.9
2022-08-07T03:46:18.117Z,69.2
2022-08-07T03:51:11.317Z,69.1
2022-08-07T03:56:17.671Z,69.0
2022-08-07T04:01:48.146Z,69.3
2022-08-07T04:06:37.295Z,69.2
2022-08-07T04:12:20.676Z,69.3
2022-08-07T04:16:43.268Z,69.4
2022-08-07T04:22:17.517Z,70.0
2022-08-07T04:26:56.126Z,69.3
2022-08-07T04:32:09.849Z,69.3
2022-08-07T04:42:15.343Z,69.3
2022-08-07T04:47:56.723Z,69.2
2022-08-07T04:52:28.104Z,69.1
2022-08-07T04:58:12.051Z,69.3
2022-08-07T05:02:43.455Z,69.0
2022-08-07T05:07:48.667Z,68.9
2022-08-07T05:12:56.199Z,68.7
2022-08-07T05:18:00.825Z,68.7
2022-08-07T05:22:56.397Z,68.7
2022-08-07T05:28:20.852Z,68.5
2022-08-07T05:33:20.794Z,68.8
2022-08-07T05:38:59.438Z,68.5
2022-08-07T05:44:11.799Z,68.6
2022-08-07T05:48:59.205Z,69.3
2022-08-07T05:54:12.816Z,69.1
2022-08-07T05:58:52.757Z,69.2
2022-08-07T06:04:01.135Z,69.5
2022-08-07T06:09:04.580Z,69.4
2022-08-07T06:14:30.502Z,69.8
2022-08-07T06:19:17.702Z,69.3
2022-08-07T06:24:46.309Z,69.6
2022-08-07T06:29:29.475Z,69.7
2022-08-07T06:34:35.864Z,71.1
2022-08-07T06:40:16.014Z,71.8
2022-08-07T06:44:51.199Z,71.4
2022-08-07T06:49:58.858Z,72.4
2022-08-07T06:55:34.547Z,73.5
2022-08-07T07:00:13.918Z,74.2
2022-08-07T07:06:03.308Z,73.1
2022-08-07T07:15:32.457Z,73.5
2022-08-07T07:20:59.186Z,73.1
2022-08-07T07:26:34.318Z,74.0
2022-08-07T07:30:47.894Z,74.1
2022-08-07T07:36:05.015Z,74.4
2022-08-07T07:41:20.734Z,73.4
2022-08-07T07:51:15.448Z,71.1
2022-08-07T08:02:02.213Z,66.3
2022-08-07T08:06:32.735Z,63.7
2022-08-07T08:12:00.120Z,61.5
2022-08-07T08:18:36.921Z,59.9
2022-08-07T08:22:03.049Z,58.7
2022-08-07T08:27:00.166Z,57.4
2022-08-07T08:32:18.463Z,56.1
2022-08-07T08:37:59.063Z,55.2
2022-08-07T08:42:09.277Z,53.6
2022-08-07T08:47:25.250Z,53.2
2022-08-07T08:54:17.523Z,51.8
2022-08-07T08:58:24.744Z,50.9
2022-08-07T09:03:19.251Z,50.8
2022-08-07T09:08:17.815Z,50.1
2022-08-07T09:13:37.580Z,49.3
2022-08-07T09:18:28.358Z,48.0
2022-08-07T09:24:31.769Z,48.1
2022-08-07T09:30:05.113Z,45.7
2022-08-07T09:34:01.647Z,45.1
2022-08-07T09:39:11.555Z,45.2
2022-08-07T09:44:10.405Z,46.2
2022-08-07T09:50:00.664Z,45.1
2022-08-07T09:54:27.168Z,44.4
2022-08-07T09:59:35.801Z,45.9
2022-08-07T10:04:28.167Z,44.3
2022-08-07T10:09:59.300Z,42.3
2022-08-07T10:15:50.411Z,42.8
2022-08-07T10:21:19.749Z,43.1
2022-08-07T10:25:03.062Z,43.3
2022-08-07T10:30:12.032Z,42.2
2022-08-07T10:35:56.499Z,39.3
2022-08-07T10:40:22.471Z,38.4
2022-08-07T10:45:45.117Z,39.4
2022-08-07T10:50:26.028Z,38.5
2022-08-07T10:55:41.553Z,37.2
2022-08-07T11:00:50.495Z,37.7
2022-08-07T11:11:00.838Z,39.3
2022-08-07T11:15:57.281Z,40.3
2022-08-07T11:31:26.439Z,39.5
2022-08-07T11:36:25.409Z,39.5
2022-08-07T11:42:00.172Z,38.5
2022-08-07T11:46:36.786Z,38.0
2022-08-07T11:51:52.000Z,38.0
2022-08-07T11:56:58.401Z,38.2
2022-08-07T12:12:18.081Z,40.8
2022-08-07T12:17:24.471Z,41.5
2022-08-07T12:22:37.368Z,42.1
2022-08-07T12:28:09.688Z,42.5
2022-08-07T12:32:43.865Z,42.8
2022-08-07T12:38:09.378Z,43.2
2022-08-07T12:42:57.054Z,44.0
2022-08-07T12:47:51.934Z,44.1
2022-08-07T12:58:15.800Z,45.1
2022-08-07T13:03:59.106Z,46.7
2022-08-07T13:10:20.794Z,47.1
2022-08-07T13:13:48.062Z,47.3
2022-08-07T13:18:31.465Z,48.0
2022-08-07T13:24:01.441Z,47.8
2022-08-07T13:28:58.179Z,48.2
2022-08-07T13:34:34.000Z,48.6
2022-08-07T13:39:12.684Z,48.9
2022-08-07T13:44:13.997Z,49.3
2022-08-07T13:54:26.751Z,49.4
2022-08-07T13:59:23.127Z,49.5
2022-08-07T14:05:03.641Z,49.5
2022-08-07T14:10:02.135Z,49.5
2022-08-07T14:14:52.275Z,49.3
2022-08-07T14:20:42.448Z,48.9
2022-08-07T14:25:05.086Z,48.5
2022-08-07T14:30:05.871Z,47.9
2022-08-07T14:35:42.980Z,47.6
2022-08-07T14:45:24.982Z,47.1
2022-08-07T14:50:41.386Z,47.3
2022-08-07T14:56:07.900Z,47.4
2022-08-07T15:00:54.271Z,47.3
2022-08-07T15:06:03.939Z,47.2
2022-08-07T15:11:07.109Z,47.0
2022-08-07T15:16:18.345Z,46.8
2022-08-07T15:26:28.783Z,47.0
2022-08-07T15:32:00.513Z,47.5
2022-08-07T15:47:16.795Z,48.5
2022-08-07T15:56:54.618Z,48.8
2022-08-07T16:08:31.123Z,49.5
2022-08-07T16:12:28.594Z,49.7
2022-08-07T16:18:01.866Z,49.9
2022-08-07T16:22:54.616Z,50.0
2022-08-07T16:28:10.341Z,50.3
2022-08-07T16:32:54.507Z,50.4
2022-08-07T16:38:20.453Z,50.4
2022-08-07T16:43:02.305Z,50.4
2022-08-07T16:58:21.532Z,51.4
2022-08-07T17:03:57.710Z,51.6
2022-08-07T17:09:04.310Z,51.9
2022-08-07T17:14:17.561Z,52.0
2022-08-07T17:18:47.087Z,52.4
2022-08-07T17:30:18.252Z,52.8
2022-08-07T17:42:01.077Z,53.1
2022-08-07T17:45:40.782Z,53.2
2022-08-07T17:50:50.849Z,53.4
2022-08-07T17:56:06.469Z,53.5
2022-08-07T18:01:17.900Z,53.7
2022-08-07T18:06:02.691Z,53.7
2022-08-07T18:12:07.257Z,54.0
2022-08-07T18:16:32.728Z,53.8
2022-08-07T18:21:51.758Z,54.0
2022-08-07T18:26:37.345Z,54.3
2022-08-07T18:31:49.880Z,54.6
2022-08-07T18:36:54.356Z,54.6
2022-08-07T18:41:58.393Z,54.8
2022-08-07T18:47:04.744Z,55.2
2022-08-07T18:52:33.896Z,55.3
2022-08-07T18:57:30.578Z,55.6
2022-08-07T19:02:33.410Z,55.7
2022-08-07T19:07:35.138Z,55.6
2022-08-07T19:12:48.862Z,56.1
2022-08-07T19:17:59.176Z,56.1
2022-08-07T19:22:53.294Z,56.2
2022-08-07T19:28:57.546Z,56.5
2022-08-07T19:33:10.198Z,56.8
2022-08-07T19:38:16.832Z,57.0
2022-08-07T19:43:48.606Z,57.3
2022-08-07T19:48:26.801Z,57.5
2022-08-07T19:54:30.848Z,57.4
2022-08-07T19:58:39.570Z,57.7
2022-08-07T20:03:36.478Z,57.7
2022-08-07T20:08:51.342Z,57.9
2022-08-07T20:13:58.719Z,58.0
2022-08-07T20:19:05.566Z,58.1
2022-08-07T20:24:11.891Z,58.1
2022-08-07T20:29:49.098Z,58.3
2022-08-07T20:34:34.434Z,58.5
2022-08-07T20:40:02.467Z,58.7
2022-08-07T20:44:40.958Z,58.7
2022-08-07T21:01:24.280Z,59.2
2022-08-07T21:06:42.476Z,59.3
2022-08-07T21:22:28.394Z,59.8
2022-08-07T21:27:07.042Z,60.0
2022-08-07T21:32:47.180Z,60.2
2022-08-07T21:37:09.107Z,60.5
2022-08-07T21:42:42.623Z,60.6
2022-08-07T21:47:20.868Z,60.8
2022-08-07T21:52:38.291Z,60.7
2022-08-07T21:57:52.648Z,60.7
2022-08-07T22:02:51.147Z,61.0
2022-08-07T22:07:59.282Z,61.1
2022-08-07T22:13:05.799Z,61.2
2022-08-07T22:18:11.874Z,61.2
2022-08-07T22:23:18.359Z,61.4
2022-08-07T22:33:53.347Z,61.5
2022-08-07T22:48:55.966Z,62.0
2022-08-07T22:54:58.984Z,62.3
2022-08-07T22:59:05.073Z,62.3
2022-08-07T23:04:09.628Z,62.4
2022-08-07T23:10:05.051Z,62.6
2022-08-07T23:14:44.386Z,62.8
2022-08-07T23:20:51.142Z,62.9
2022-08-07T23:24:59.208Z,63.0
2022-08-07T23:30:36.915Z,63.3
2022-08-07T23:34:39.719Z,63.3
2022-08-07T23:40:18.341Z,63.3
2022-08-07T23:45:00.683Z,63.3
2022-08-07T23:50:07.069Z,63.6
2022-08-07T23:55:51.880Z,63.6
